sensor_id;sensor_type;location;lat;lon;timestamp;temperature;humidity
29353;DHT22;16344;50.364;8.944;2023-04-06T00:00:49;5.50;1.00
29353;DHT22;16344;50.364;8.944;2023-04-06T00:03:14;5.50;1.00
29353;DHT22;16344;50.364;8.944;2023-04-06T00:05:41;5.50;1.00
29353;DHT22;16344;50.364;8.944;2023-04-06T00:08:06;5.50;1.00
29353;DHT22;16344;50.364;8.944;2023-04-06T00:10:32;5.60;1.00
29353;DHT22;16344;50.364;8.944;2023-04-06T00:12:59;5.60;1.00
29353;DHT22;16344;50.364;8.944;2023-04-06T00:15:25;5.50;1.00
29353;DHT22;16344;50.364;8.944;2023-04-06T00:17:51;5.40;1.00
29353;DHT22;16344;50.364;8.944;2023-04-06T00:20:17;5.30;1.00
29353;DHT22;16344;50.364;8.944;2023-04-06T00:22:43;5.30;1.00
29353;DHT22;16344;50.364;8.944;2023-04-06T00:25:09;5.30;1.00
29353;DHT22;16344;50.364;8.944;2023-04-06T00:27:35;5.30;1.00
29353;DHT22;16344;50.364;8.944;2023-04-06T00:30:02;5.20;1.00
29353;DHT22;16344;50.364;8.944;2023-04-06T00:32:28;5.30;1.00
29353;DHT22;16344;50.364;8.944;2023-04-06T00:34:53;5.30;1.00
29353;DHT22;16344;50.364;8.944;2023-04-06T00:37:19;5.30;1.00
29353;DHT22;16344;50.364;8.944;2023-04-06T00:39:44;5.40;1.00
29353;DHT22;16344;50.364;8.944;2023-04-06T00:42:14;5.40;1.00
29353;DHT22;16344;50.364;8.944;2023-04-06T00:44:40;5.40;1.00
29353;DHT22;16344;50.364;8.944;2023-04-06T00:47:06;5.40;1.00
29353;DHT22;16344;50.364;8.944;2023-04-06T00:49:32;5.40;1.00
29353;DHT22;16344;50.364;8.944;2023-04-06T00:51:58;5.40;1.00
29353;DHT22;16344;50.364;8.944;2023-04-06T00:54:24;5.50;1.00
29353;DHT22;16344;50.364;8.944;2023-04-06T00:56:50;5.50;1.00
29353;DHT22;16344;50.364;8.944;2023-04-06T00:59:15;5.40;1.00
29353;DHT22;16344;50.364;8.944;2023-04-06T01:01:41;5.20;1.00
29353;DHT22;16344;50.364;8.944;2023-04-06T01:04:07;5.20;1.00
29353;DHT22;16344;50.364;8.944;2023-04-06T01:06:32;5.00;1.00
29353;DHT22;16344;50.364;8.944;2023-04-06T01:08:58;5.00;1.00
29353;DHT22;16344;50.364;8.944;2023-04-06T01:11:23;4.90;1.00
29353;DHT22;16344;50.364;8.944;2023-04-06T01:13:49;5.00;1.00
29353;DHT22;16344;50.364;8.944;2023-04-06T01:16:14;5.00;1.00
29353;DHT22;16344;50.364;8.944;2023-04-06T01:18:40;5.10;1.00
29353;DHT22;16344;50.364;8.944;2023-04-06T01:21:07;5.10;1.00
29353;DHT22;16344;50.364;8.944;2023-04-06T01:23:34;5.20;1.00
29353;DHT22;16344;50.364;8.944;2023-04-06T01:26:00;5.20;1.00
29353;DHT22;16344;50.364;8.944;2023-04-06T01:28:25;5.20;1.00
29353;DHT22;16344;50.364;8.944;2023-04-06T01:30:51;5.20;1.00
29353;DHT22;16344;50.364;8.944;2023-04-06T01:33:16;5.20;1.00
29353;DHT22;16344;50.364;8.944;2023-04-06T01:35:42;5.20;1.00
29353;DHT22;16344;50.364;8.944;2023-04-06T01:38:07;5.20;1.00
29353;DHT22;16344;50.364;8.944;2023-04-06T01:40:33;5.00;1.00
29353;DHT22;16344;50.364;8.944;2023-04-06T01:42:58;4.90;1.00
29353;DHT22;16344;50.364;8.944;2023-04-06T01:45:24;4.90;1.00
29353;DHT22;16344;50.364;8.944;2023-04-06T01:47:50;4.90;1.00
29353;DHT22;16344;50.364;8.944;2023-04-06T01:50:16;4.90;1.00
29353;DHT22;16344;50.364;8.944;2023-04-06T01:52:41;5.00;1.00
29353;DHT22;16344;50.364;8.944;2023-04-06T01:55:07;4.80;1.00
29353;DHT22;16344;50.364;8.944;2023-04-06T01:57:32;4.80;1.00
29353;DHT22;16344;50.364;8.944;2023-04-06T01:59:58;4.70;1.00
29353;DHT22;16344;50.364;8.944;2023-04-06T02:02:24;4.60;1.00
29353;DHT22;16344;50.364;8.944;2023-04-06T02:04:50;4.50;1.00
29353;DHT22;16344;50.364;8.944;2023-04-06T02:07:15;4.50;1.00
29353;DHT22;16344;50.364;8.944;2023-04-06T02:09:41;4.30;1.00
29353;DHT22;16344;50.364;8.944;2023-04-06T02:12:06;4.20;1.00
29353;DHT22;16344;50.364;8.944;2023-04-06T02:14:33;4.30;1.00
29353;DHT22;16344;50.364;8.944;2023-04-06T02:16:58;4.30;1.00
29353;DHT22;16344;50.364;8.944;2023-04-06T02:19:24;4.20;1.00
29353;DHT22;16344;50.364;8.944;2023-04-06T02:21:49;4.10;1.00
29353;DHT22;16344;50.364;8.944;2023-04-06T02:24:15;4.10;1.00
29353;DHT22;16344;50.364;8.944;2023-04-06T02:26:40;4.10;1.00
29353;DHT22;16344;50.364;8.944;2023-04-06T02:29:05;4.10;1.00
29353;DHT22;16344;50.364;8.944;2023-04-06T02:31:32;4.10;1.00
29353;DHT22;16344;50.364;8.944;2023-04-06T02:33:57;4.10;1.00
29353;DHT22;16344;50.364;8.944;2023-04-06T02:36:23;4.10;1.00
29353;DHT22;16344;50.364;8.944;2023-04-06T02:38:48;4.00;1.00
29353;DHT22;16344;50.364;8.944;2023-04-06T02:41:14;4.10;1.00
29353;DHT22;16344;50.364;8.944;2023-04-06T02:43:39;4.10;1.00
29353;DHT22;16344;50.364;8.944;2023-04-06T02:46:05;4.00;1.00
29353;DHT22;16344;50.364;8.944;2023-04-06T02:48:30;4.10;1.00
29353;DHT22;16344;50.364;8.944;2023-04-06T02:50:56;4.00;1.00
29353;DHT22;16344;50.364;8.944;2023-04-06T02:53:21;4.10;1.00
29353;DHT22;16344;50.364;8.944;2023-04-06T02:55:47;4.10;1.00
29353;DHT22;16344;50.364;8.944;2023-04-06T02:58:12;4.00;1.00
29353;DHT22;16344;50.364;8.944;2023-04-06T03:00:38;3.90;1.00
29353;DHT22;16344;50.364;8.944;2023-04-06T03:03:03;3.90;1.00
29353;DHT22;16344;50.364;8.944;2023-04-06T03:05:29;3.90;1.00
29353;DHT22;16344;50.364;8.944;2023-04-06T03:07:55;3.80;1.00
29353;DHT22;16344;50.364;8.944;2023-04-06T03:10:21;3.80;1.00
29353;DHT22;16344;50.364;8.944;2023-04-06T03:12:46;3.80;1.00
29353;DHT22;16344;50.364;8.944;2023-04-06T03:15:12;3.80;1.00
29353;DHT22;16344;50.364;8.944;2023-04-06T03:17:38;3.80;1.00
29353;DHT22;16344;50.364;8.944;2023-04-06T03:20:04;3.80;1.00
29353;DHT22;16344;50.364;8.944;2023-04-06T03:22:30;3.70;1.00
29353;DHT22;16344;50.364;8.944;2023-04-06T03:24:55;3.70;1.00
29353;DHT22;16344;50.364;8.944;2023-04-06T03:27:21;3.60;1.00
29353;DHT22;16344;50.364;8.944;2023-04-06T03:29:46;3.60;1.00
29353;DHT22;16344;50.364;8.944;2023-04-06T03:32:12;3.80;1.00
29353;DHT22;16344;50.364;8.944;2023-04-06T03:34:38;3.80;1.00
29353;DHT22;16344;50.364;8.944;2023-04-06T03:37:04;4.00;1.00
29353;DHT22;16344;50.364;8.944;2023-04-06T03:39:30;4.10;1.00
29353;DHT22;16344;50.364;8.944;2023-04-06T03:41:55;4.10;1.00
29353;DHT22;16344;50.364;8.944;2023-04-06T03:44:21;4.10;1.00
29353;DHT22;16344;50.364;8.944;2023-04-06T03:46:46;4.10;1.00
29353;DHT22;16344;50.364;8.944;2023-04-06T03:49:12;4.10;1.00
29353;DHT22;16344;50.364;8.944;2023-04-06T03:51:37;4.20;1.00
29353;DHT22;16344;50.364;8.944;2023-04-06T03:54:03;4.20;1.00
29353;DHT22;16344;50.364;8.944;2023-04-06T03:56:28;4.10;1.00
29353;DHT22;16344;50.364;8.944;2023-04-06T03:58:54;4.10;1.00
29353;DHT22;16344;50.364;8.944;2023-04-06T04:01:20;4.10;1.00
29353;DHT22;16344;50.364;8.944;2023-04-06T04:03:45;4.10;1.00
29353;DHT22;16344;50.364;8.944;2023-04-06T04:06:11;4.10;1.00
29353;DHT22;16344;50.364;8.944;2023-04-06T04:08:37;4.10;1.00
29353;DHT22;16344;50.364;8.944;2023-04-06T04:11:02;4.10;1.00
29353;DHT22;16344;50.364;8.944;2023-04-06T04:13:28;4.00;1.00
29353;DHT22;16344;50.364;8.944;2023-04-06T04:15:53;3.90;1.00
29353;DHT22;16344;50.364;8.944;2023-04-06T04:18:19;3.80;1.00
29353;DHT22;16344;50.364;8.944;2023-04-06T04:20:44;3.70;1.00
29353;DHT22;16344;50.364;8.944;2023-04-06T04:23:10;3.70;1.00
29353;DHT22;16344;50.364;8.944;2023-04-06T04:25:36;3.60;1.00
29353;DHT22;16344;50.364;8.944;2023-04-06T04:28:01;3.60;1.00
29353;DHT22;16344;50.364;8.944;2023-04-06T04:30:27;3.50;1.00
29353;DHT22;16344;50.364;8.944;2023-04-06T04:32:52;3.50;1.00
29353;DHT22;16344;50.364;8.944;2023-04-06T04:35:18;3.40;1.00
29353;DHT22;16344;50.364;8.944;2023-04-06T04:37:44;3.30;1.00
29353;DHT22;16344;50.364;8.944;2023-04-06T04:40:10;3.20;1.00
29353;DHT22;16344;50.364;8.944;2023-04-06T04:42:35;3.20;1.00
29353;DHT22;16344;50.364;8.944;2023-04-06T04:45:01;3.20;1.00
29353;DHT22;16344;50.364;8.944;2023-04-06T04:47:27;3.20;1.00
29353;DHT22;16344;50.364;8.944;2023-04-06T04:49:52;3.30;1.00
29353;DHT22;16344;50.364;8.944;2023-04-06T04:52:18;3.40;1.00
29353;DHT22;16344;50.364;8.944;2023-04-06T04:54:43;3.30;1.00
29353;DHT22;16344;50.364;8.944;2023-04-06T04:57:09;3.30;1.00
29353;DHT22;16344;50.364;8.944;2023-04-06T04:59:35;3.30;1.00
29353;DHT22;16344;50.364;8.944;2023-04-06T05:02:00;3.20;1.00
29353;DHT22;16344;50.364;8.944;2023-04-06T05:04:26;3.30;1.00
29353;DHT22;16344;50.364;8.944;2023-04-06T05:07:03;3.30;1.00
29353;DHT22;16344;50.364;8.944;2023-04-06T05:09:29;3.30;1.00
29353;DHT22;16344;50.364;8.944;2023-04-06T05:11:55;3.50;1.00
29353;DHT22;16344;50.364;8.944;2023-04-06T05:14:21;3.70;1.00
29353;DHT22;16344;50.364;8.944;2023-04-06T05:16:46;4.10;1.00
29353;DHT22;16344;50.364;8.944;2023-04-06T05:19:12;4.60;1.00
29353;DHT22;16344;50.364;8.944;2023-04-06T05:21:37;5.00;1.00
29353;DHT22;16344;50.364;8.944;2023-04-06T05:24:03;5.50;1.00
29353;DHT22;16344;50.364;8.944;2023-04-06T05:26:29;6.30;1.00
29353;DHT22;16344;50.364;8.944;2023-04-06T05:28:54;7.10;1.00
29353;DHT22;16344;50.364;8.944;2023-04-06T05:31:20;7.50;1.00
29353;DHT22;16344;50.364;8.944;2023-04-06T05:33:45;7.40;1.00
29353;DHT22;16344;50.364;8.944;2023-04-06T05:36:11;7.70;1.00
29353;DHT22;16344;50.364;8.944;2023-04-06T05:38:37;7.80;1.00
29353;DHT22;16344;50.364;8.944;2023-04-06T05:41:02;8.40;1.00
29353;DHT22;16344;50.364;8.944;2023-04-06T05:43:28;8.70;1.00
29353;DHT22;16344;50.364;8.944;2023-04-06T05:45:53;9.20;1.00
29353;DHT22;16344;50.364;8.944;2023-04-06T05:48:19;9.90;1.00
29353;DHT22;16344;50.364;8.944;2023-04-06T05:50:49;10.40;1.00
29353;DHT22;16344;50.364;8.944;2023-04-06T05:53:15;10.70;1.00
29353;DHT22;16344;50.364;8.944;2023-04-06T05:55:41;11.30;1.00
29353;DHT22;16344;50.364;8.944;2023-04-06T05:58:06;11.60;99.90
29353;DHT22;16344;50.364;8.944;2023-04-06T06:00:32;11.90;99.90
29353;DHT22;16344;50.364;8.944;2023-04-06T06:02:58;12.40;99.90
29353;DHT22;16344;50.364;8.944;2023-04-06T06:05:23;12.90;99.90
29353;DHT22;16344;50.364;8.944;2023-04-06T06:07:49;13.30;99.90
29353;DHT22;16344;50.364;8.944;2023-04-06T06:10:14;13.80;99.90
29353;DHT22;16344;50.364;8.944;2023-04-06T06:12:40;14.10;99.90
29353;DHT22;16344;50.364;8.944;2023-04-06T06:15:06;13.90;99.90
29353;DHT22;16344;50.364;8.944;2023-04-06T06:17:32;14.00;99.90
29353;DHT22;16344;50.364;8.944;2023-04-06T06:19:57;14.10;99.90
29353;DHT22;16344;50.364;8.944;2023-04-06T06:22:23;13.10;99.90
29353;DHT22;16344;50.364;8.944;2023-04-06T06:24:48;12.80;99.90
29353;DHT22;16344;50.364;8.944;2023-04-06T06:27:15;13.20;99.90
29353;DHT22;16344;50.364;8.944;2023-04-06T06:29:41;13.70;99.90
29353;DHT22;16344;50.364;8.944;2023-04-06T06:32:06;13.50;99.90
29353;DHT22;16344;50.364;8.944;2023-04-06T06:34:34;13.30;99.90
29353;DHT22;16344;50.364;8.944;2023-04-06T06:37:00;13.30;99.90
29353;DHT22;16344;50.364;8.944;2023-04-06T06:39:26;13.40;99.90
29353;DHT22;16344;50.364;8.944;2023-04-06T06:41:51;13.20;99.90
29353;DHT22;16344;50.364;8.944;2023-04-06T06:44:17;13.00;99.90
29353;DHT22;16344;50.364;8.944;2023-04-06T06:46:42;13.10;99.90
29353;DHT22;16344;50.364;8.944;2023-04-06T06:49:09;13.10;99.90
29353;DHT22;16344;50.364;8.944;2023-04-06T06:51:36;12.70;99.90
29353;DHT22;16344;50.364;8.944;2023-04-06T06:54:01;12.30;99.90
29353;DHT22;16344;50.364;8.944;2023-04-06T06:56:27;12.50;99.90
29353;DHT22;16344;50.364;8.944;2023-04-06T06:58:53;12.40;99.90
29353;DHT22;16344;50.364;8.944;2023-04-06T07:01:18;12.00;99.90
29353;DHT22;16344;50.364;8.944;2023-04-06T07:03:44;12.10;99.90
29353;DHT22;16344;50.364;8.944;2023-04-06T07:06:09;11.70;99.90
29353;DHT22;16344;50.364;8.944;2023-04-06T07:08:35;11.50;99.90
29353;DHT22;16344;50.364;8.944;2023-04-06T07:11:00;11.40;99.90
29353;DHT22;16344;50.364;8.944;2023-04-06T07:13:26;11.10;99.90
29353;DHT22;16344;50.364;8.944;2023-04-06T07:15:53;10.80;99.90
29353;DHT22;16344;50.364;8.944;2023-04-06T07:18:19;11.00;99.90
29353;DHT22;16344;50.364;8.944;2023-04-06T07:20:45;11.20;99.90
29353;DHT22;16344;50.364;8.944;2023-04-06T07:23:11;11.20;99.90
29353;DHT22;16344;50.364;8.944;2023-04-06T07:25:36;11.10;99.90
29353;DHT22;16344;50.364;8.944;2023-04-06T07:28:03;11.10;99.90
29353;DHT22;16344;50.364;8.944;2023-04-06T07:30:29;11.30;99.90
29353;DHT22;16344;50.364;8.944;2023-04-06T07:32:54;11.50;99.90
29353;DHT22;16344;50.364;8.944;2023-04-06T07:35:25;11.90;99.90
29353;DHT22;16344;50.364;8.944;2023-04-06T07:37:52;12.10;99.90
29353;DHT22;16344;50.364;8.944;2023-04-06T07:40:17;12.10;99.90
29353;DHT22;16344;50.364;8.944;2023-04-06T07:42:43;12.30;99.90
29353;DHT22;16344;50.364;8.944;2023-04-06T07:45:09;12.40;99.90
29353;DHT22;16344;50.364;8.944;2023-04-06T07:47:35;12.20;99.90
29353;DHT22;16344;50.364;8.944;2023-04-06T07:50:00;12.30;99.90
29353;DHT22;16344;50.364;8.944;2023-04-06T07:52:26;12.20;99.90
29353;DHT22;16344;50.364;8.944;2023-04-06T07:54:51;11.80;99.90
29353;DHT22;16344;50.364;8.944;2023-04-06T07:57:18;11.60;99.90
29353;DHT22;16344;50.364;8.944;2023-04-06T07:59:43;11.40;99.90
29353;DHT22;16344;50.364;8.944;2023-04-06T08:02:09;11.50;99.90
29353;DHT22;16344;50.364;8.944;2023-04-06T08:04:35;11.70;99.90
29353;DHT22;16344;50.364;8.944;2023-04-06T08:07:01;11.70;99.90
29353;DHT22;16344;50.364;8.944;2023-04-06T08:09:26;11.70;99.90
29353;DHT22;16344;50.364;8.944;2023-04-06T08:11:52;11.70;99.90
29353;DHT22;16344;50.364;8.944;2023-04-06T08:14:18;11.60;99.90
29353;DHT22;16344;50.364;8.944;2023-04-06T08:16:43;11.80;99.90
29353;DHT22;16344;50.364;8.944;2023-04-06T08:19:09;11.90;99.90
29353;DHT22;16344;50.364;8.944;2023-04-06T08:21:35;11.50;99.90
29353;DHT22;16344;50.364;8.944;2023-04-06T08:24:01;11.70;99.90
29353;DHT22;16344;50.364;8.944;2023-04-06T08:26:27;12.00;99.90
29353;DHT22;16344;50.364;8.944;2023-04-06T08:28:53;12.10;99.90
29353;DHT22;16344;50.364;8.944;2023-04-06T08:31:18;12.30;99.90
29353;DHT22;16344;50.364;8.944;2023-04-06T08:33:44;12.00;99.90
29353;DHT22;16344;50.364;8.944;2023-04-06T08:36:14;11.80;99.90
29353;DHT22;16344;50.364;8.944;2023-04-06T08:38:40;11.90;99.90
29353;DHT22;16344;50.364;8.944;2023-04-06T08:41:07;11.90;99.90
29353;DHT22;16344;50.364;8.944;2023-04-06T08:43:37;12.00;99.90
29353;DHT22;16344;50.364;8.944;2023-04-06T08:46:08;11.70;99.90
29353;DHT22;16344;50.364;8.944;2023-04-06T08:48:34;11.80;99.90
29353;DHT22;16344;50.364;8.944;2023-04-06T08:51:02;12.10;99.90
29353;DHT22;16344;50.364;8.944;2023-04-06T08:53:27;12.40;99.90
29353;DHT22;16344;50.364;8.944;2023-04-06T08:55:55;12.30;99.90
29353;DHT22;16344;50.364;8.944;2023-04-06T08:58:21;12.50;99.90
29353;DHT22;16344;50.364;8.944;2023-04-06T09:00:48;12.80;99.90
29353;DHT22;16344;50.364;8.944;2023-04-06T09:03:14;13.00;99.90
29353;DHT22;16344;50.364;8.944;2023-04-06T09:05:41;12.80;99.90
29353;DHT22;16344;50.364;8.944;2023-04-06T09:08:07;12.30;99.90
29353;DHT22;16344;50.364;8.944;2023-04-06T09:10:32;12.10;99.90
29353;DHT22;16344;50.364;8.944;2023-04-06T09:13:07;12.10;99.90
29353;DHT22;16344;50.364;8.944;2023-04-06T09:15:33;12.50;99.90
29353;DHT22;16344;50.364;8.944;2023-04-06T09:17:59;12.80;99.90
29353;DHT22;16344;50.364;8.944;2023-04-06T09:20:25;13.00;99.90
29353;DHT22;16344;50.364;8.944;2023-04-06T09:22:53;12.90;99.90
29353;DHT22;16344;50.364;8.944;2023-04-06T09:25:20;12.80;99.90
29353;DHT22;16344;50.364;8.944;2023-04-06T09:27:46;12.90;99.90
29353;DHT22;16344;50.364;8.944;2023-04-06T09:30:12;12.80;99.90
29353;DHT22;16344;50.364;8.944;2023-04-06T09:32:49;13.10;99.90
29353;DHT22;16344;50.364;8.944;2023-04-06T09:35:16;13.20;99.90
29353;DHT22;16344;50.364;8.944;2023-04-06T09:37:43;13.30;99.90
29353;DHT22;16344;50.364;8.944;2023-04-06T09:40:09;13.50;99.90
29353;DHT22;16344;50.364;8.944;2023-04-06T09:42:34;13.50;99.90
29353;DHT22;16344;50.364;8.944;2023-04-06T09:45:02;13.10;99.90
29353;DHT22;16344;50.364;8.944;2023-04-06T09:47:29;13.30;99.90
29353;DHT22;16344;50.364;8.944;2023-04-06T09:49:59;13.20;99.90
29353;DHT22;16344;50.364;8.944;2023-04-06T09:52:27;13.30;99.90
29353;DHT22;16344;50.364;8.944;2023-04-06T09:54:59;13.50;99.90
29353;DHT22;16344;50.364;8.944;2023-04-06T09:57:52;13.30;99.90
29353;DHT22;16344;50.364;8.944;2023-04-06T10:00:22;13.30;99.90
29353;DHT22;16344;50.364;8.944;2023-04-06T10:03:06;13.40;99.90
29353;DHT22;16344;50.364;8.944;2023-04-06T10:05:41;13.70;99.90
29353;DHT22;16344;50.364;8.944;2023-04-06T10:08:10;13.70;99.90
29353;DHT22;16344;50.364;8.944;2023-04-06T10:10:37;13.90;99.90
29353;DHT22;16344;50.364;8.944;2023-04-06T10:13:03;13.90;99.90
29353;DHT22;16344;50.364;8.944;2023-04-06T10:15:30;14.20;99.90
29353;DHT22;16344;50.364;8.944;2023-04-06T10:17:57;14.40;99.90
29353;DHT22;16344;50.364;8.944;2023-04-06T10:20:25;14.30;99.90
29353;DHT22;16344;50.364;8.944;2023-04-06T10:23:08;14.30;99.90
29353;DHT22;16344;50.364;8.944;2023-04-06T10:25:34;14.60;99.90
29353;DHT22;16344;50.364;8.944;2023-04-06T10:28:07;14.40;99.90
29353;DHT22;16344;50.364;8.944;2023-04-06T10:30:34;14.50;99.90
29353;DHT22;16344;50.364;8.944;2023-04-06T10:32:59;14.30;99.90
29353;DHT22;16344;50.364;8.944;2023-04-06T10:35:36;14.10;99.90
29353;DHT22;16344;50.364;8.944;2023-04-06T10:38:03;14.30;99.90
29353;DHT22;16344;50.364;8.944;2023-04-06T10:40:29;14.30;99.90
29353;DHT22;16344;50.364;8.944;2023-04-06T10:43:07;14.30;99.90
29353;DHT22;16344;50.364;8.944;2023-04-06T10:45:33;14.40;99.90
29353;DHT22;16344;50.364;8.944;2023-04-06T10:47:59;14.50;99.90
29353;DHT22;16344;50.364;8.944;2023-04-06T10:50:25;14.40;99.90
29353;DHT22;16344;50.364;8.944;2023-04-06T10:53:01;14.40;99.90
29353;DHT22;16344;50.364;8.944;2023-04-06T10:55:30;14.60;99.90
29353;DHT22;16344;50.364;8.944;2023-04-06T10:57:56;14.50;99.90
29353;DHT22;16344;50.364;8.944;2023-04-06T11:00:22;14.40;99.90
29353;DHT22;16344;50.364;8.944;2023-04-06T11:02:48;14.40;99.90
29353;DHT22;16344;50.364;8.944;2023-04-06T11:05:14;14.50;99.90
29353;DHT22;16344;50.364;8.944;2023-04-06T11:07:40;14.60;99.90
29353;DHT22;16344;50.364;8.944;2023-04-06T11:10:07;14.40;99.90
29353;DHT22;16344;50.364;8.944;2023-04-06T11:12:33;14.50;99.90
29353;DHT22;16344;50.364;8.944;2023-04-06T11:15:01;14.70;99.90
29353;DHT22;16344;50.364;8.944;2023-04-06T11:17:31;14.80;99.90
29353;DHT22;16344;50.364;8.944;2023-04-06T11:19:57;15.00;99.90
29353;DHT22;16344;50.364;8.944;2023-04-06T11:22:24;15.00;99.90
29353;DHT22;16344;50.364;8.944;2023-04-06T11:24:50;14.90;99.90
29353;DHT22;16344;50.364;8.944;2023-04-06T11:27:15;15.00;99.90
29353;DHT22;16344;50.364;8.944;2023-04-06T11:29:42;15.00;99.90
29353;DHT22;16344;50.364;8.944;2023-04-06T11:32:07;15.20;99.90
29353;DHT22;16344;50.364;8.944;2023-04-06T11:34:37;15.20;99.90
29353;DHT22;16344;50.364;8.944;2023-04-06T11:37:07;14.90;99.90
29353;DHT22;16344;50.364;8.944;2023-04-06T11:39:38;14.80;99.90
29353;DHT22;16344;50.364;8.944;2023-04-06T11:42:05;14.90;99.90
29353;DHT22;16344;50.364;8.944;2023-04-06T11:44:44;15.00;99.90
29353;DHT22;16344;50.364;8.944;2023-04-06T11:47:14;15.20;99.90
29353;DHT22;16344;50.364;8.944;2023-04-06T11:49:42;15.30;99.90
29353;DHT22;16344;50.364;8.944;2023-04-06T11:52:19;15.30;99.90
29353;DHT22;16344;50.364;8.944;2023-04-06T11:54:46;15.20;99.90
29353;DHT22;16344;50.364;8.944;2023-04-06T11:57:12;15.00;99.90
29353;DHT22;16344;50.364;8.944;2023-04-06T11:59:38;15.20;99.90
29353;DHT22;16344;50.364;8.944;2023-04-06T12:02:04;15.20;99.90
29353;DHT22;16344;50.364;8.944;2023-04-06T12:04:31;15.30;99.90
29353;DHT22;16344;50.364;8.944;2023-04-06T12:06:57;15.30;99.90
29353;DHT22;16344;50.364;8.944;2023-04-06T12:09:22;15.30;99.90
29353;DHT22;16344;50.364;8.944;2023-04-06T12:11:48;15.40;99.90
29353;DHT22;16344;50.364;8.944;2023-04-06T12:14:14;15.50;99.90
29353;DHT22;16344;50.364;8.944;2023-04-06T12:16:39;15.70;99.90
29353;DHT22;16344;50.364;8.944;2023-04-06T12:19:05;15.60;99.90
29353;DHT22;16344;50.364;8.944;2023-04-06T12:21:31;15.60;99.90
29353;DHT22;16344;50.364;8.944;2023-04-06T12:23:58;15.50;99.90
29353;DHT22;16344;50.364;8.944;2023-04-06T12:26:24;15.60;99.90
29353;DHT22;16344;50.364;8.944;2023-04-06T12:28:50;15.50;99.90
29353;DHT22;16344;50.364;8.944;2023-04-06T12:31:22;15.60;99.90
29353;DHT22;16344;50.364;8.944;2023-04-06T12:33:49;15.50;99.90
29353;DHT22;16344;50.364;8.944;2023-04-06T12:36:16;15.60;99.90
29353;DHT22;16344;50.364;8.944;2023-04-06T12:38:50;15.50;99.90
29353;DHT22;16344;50.364;8.944;2023-04-06T12:41:16;15.20;99.90
29353;DHT22;16344;50.364;8.944;2023-04-06T12:43:43;15.10;99.90
29353;DHT22;16344;50.364;8.944;2023-04-06T12:46:09;15.10;99.90
29353;DHT22;16344;50.364;8.944;2023-04-06T12:48:35;15.20;99.90
29353;DHT22;16344;50.364;8.944;2023-04-06T12:51:03;15.00;99.90
29353;DHT22;16344;50.364;8.944;2023-04-06T12:53:29;15.00;99.90
29353;DHT22;16344;50.364;8.944;2023-04-06T12:55:55;14.90;99.90
29353;DHT22;16344;50.364;8.944;2023-04-06T12:58:21;15.10;99.90
29353;DHT22;16344;50.364;8.944;2023-04-06T13:00:48;15.10;99.90
29353;DHT22;16344;50.364;8.944;2023-04-06T13:03:14;15.10;99.90
29353;DHT22;16344;50.364;8.944;2023-04-06T13:05:47;15.20;99.90
29353;DHT22;16344;50.364;8.944;2023-04-06T13:08:14;15.20;99.90
29353;DHT22;16344;50.364;8.944;2023-04-06T13:10:50;15.40;99.90
29353;DHT22;16344;50.364;8.944;2023-04-06T13:13:21;15.50;99.90
29353;DHT22;16344;50.364;8.944;2023-04-06T13:15:47;15.60;99.90
29353;DHT22;16344;50.364;8.944;2023-04-06T13:18:12;15.60;99.90
29353;DHT22;16344;50.364;8.944;2023-04-06T13:20:38;15.60;99.90
29353;DHT22;16344;50.364;8.944;2023-04-06T13:23:03;15.50;99.90
29353;DHT22;16344;50.364;8.944;2023-04-06T13:25:29;15.40;99.90
29353;DHT22;16344;50.364;8.944;2023-04-06T13:27:55;15.30;99.90
29353;DHT22;16344;50.364;8.944;2023-04-06T13:30:20;15.30;99.90
29353;DHT22;16344;50.364;8.944;2023-04-06T13:32:46;15.20;99.90
29353;DHT22;16344;50.364;8.944;2023-04-06T13:35:12;15.20;99.90
29353;DHT22;16344;50.364;8.944;2023-04-06T13:37:38;15.10;99.90
29353;DHT22;16344;50.364;8.944;2023-04-06T13:40:04;15.00;99.90
29353;DHT22;16344;50.364;8.944;2023-04-06T13:42:32;15.00;99.90
29353;DHT22;16344;50.364;8.944;2023-04-06T13:45:00;15.00;99.90
29353;DHT22;16344;50.364;8.944;2023-04-06T13:47:25;15.10;99.90
29353;DHT22;16344;50.364;8.944;2023-04-06T13:49:51;15.00;99.90
29353;DHT22;16344;50.364;8.944;2023-04-06T13:52:18;15.10;99.90
29353;DHT22;16344;50.364;8.944;2023-04-06T13:54:44;15.10;99.90
29353;DHT22;16344;50.364;8.944;2023-04-06T13:57:10;14.80;99.90
29353;DHT22;16344;50.364;8.944;2023-04-06T13:59:36;14.70;99.90
29353;DHT22;16344;50.364;8.944;2023-04-06T14:02:06;14.70;99.90
29353;DHT22;16344;50.364;8.944;2023-04-06T14:04:32;14.70;99.90
29353;DHT22;16344;50.364;8.944;2023-04-06T14:06:58;14.70;99.90
29353;DHT22;16344;50.364;8.944;2023-04-06T14:09:24;14.80;99.90
29353;DHT22;16344;50.364;8.944;2023-04-06T14:11:50;14.90;99.90
29353;DHT22;16344;50.364;8.944;2023-04-06T14:14:16;15.00;99.90
29353;DHT22;16344;50.364;8.944;2023-04-06T14:16:42;15.00;99.90
29353;DHT22;16344;50.364;8.944;2023-04-06T14:19:13;15.10;99.90
29353;DHT22;16344;50.364;8.944;2023-04-06T14:21:39;15.20;99.90
29353;DHT22;16344;50.364;8.944;2023-04-06T14:24:08;15.30;99.90
29353;DHT22;16344;50.364;8.944;2023-04-06T14:26:38;15.30;99.90
29353;DHT22;16344;50.364;8.944;2023-04-06T14:29:04;15.30;99.90
29353;DHT22;16344;50.364;8.944;2023-04-06T14:31:30;15.40;99.90
29353;DHT22;16344;50.364;8.944;2023-04-06T14:33:56;15.40;99.90
29353;DHT22;16344;50.364;8.944;2023-04-06T14:36:22;15.50;99.90
29353;DHT22;16344;50.364;8.944;2023-04-06T14:38:48;15.50;99.90
29353;DHT22;16344;50.364;8.944;2023-04-06T14:41:22;15.40;99.90
29353;DHT22;16344;50.364;8.944;2023-04-06T14:43:48;15.40;99.90
29353;DHT22;16344;50.364;8.944;2023-04-06T14:46:14;15.30;99.90
29353;DHT22;16344;50.364;8.944;2023-04-06T14:48:46;15.30;99.90
29353;DHT22;16344;50.364;8.944;2023-04-06T14:51:12;15.20;99.90
29353;DHT22;16344;50.364;8.944;2023-04-06T14:53:38;15.20;99.90
29353;DHT22;16344;50.364;8.944;2023-04-06T14:56:04;15.30;99.90
29353;DHT22;16344;50.364;8.944;2023-04-06T14:58:30;15.30;99.90
29353;DHT22;16344;50.364;8.944;2023-04-06T15:00:56;15.20;99.90
29353;DHT22;16344;50.364;8.944;2023-04-06T15:03:23;15.20;99.90
29353;DHT22;16344;50.364;8.944;2023-04-06T15:05:51;15.30;99.90
29353;DHT22;16344;50.364;8.944;2023-04-06T15:08:16;15.40;99.90
29353;DHT22;16344;50.364;8.944;2023-04-06T15:10:42;15.40;99.90
29353;DHT22;16344;50.364;8.944;2023-04-06T15:13:08;15.40;99.90
29353;DHT22;16344;50.364;8.944;2023-04-06T15:15:33;15.40;99.90
29353;DHT22;16344;50.364;8.944;2023-04-06T15:17:59;15.40;99.90
29353;DHT22;16344;50.364;8.944;2023-04-06T15:20:27;15.20;99.90
29353;DHT22;16344;50.364;8.944;2023-04-06T15:22:53;15.10;99.90
29353;DHT22;16344;50.364;8.944;2023-04-06T15:25:18;15.10;99.90
29353;DHT22;16344;50.364;8.944;2023-04-06T15:27:44;15.10;99.90
29353;DHT22;16344;50.364;8.944;2023-04-06T15:30:10;15.20;99.90
29353;DHT22;16344;50.364;8.944;2023-04-06T15:32:35;15.10;99.90
29353;DHT22;16344;50.364;8.944;2023-04-06T15:35:09;15.00;99.90
29353;DHT22;16344;50.364;8.944;2023-04-06T15:37:34;14.90;99.90